sensor_id;sensor_type;location;lat;lon;timestamp;P1;durP1;ratioP1;P2;durP2;ratioP2
9270;SDS011;4673;53.458;9.940;2023-10-13T00:01:33;2.90;;;2.90;;
9270;SDS011;4673;53.458;9.940;2023-10-13T00:03:59;2.73;;;2.73;;
9270;SDS011;4673;53.458;9.940;2023-10-13T00:06:30;2.77;;;2.77;;
9270;SDS011;4673;53.458;9.940;2023-10-13T00:08:56;2.97;;;2.97;;
9270;SDS011;4673;53.458;9.940;2023-10-13T00:11:21;3.30;;;3.30;;
9270;SDS011;4673;53.458;9.940;2023-10-13T00:13:47;3.47;;;3.47;;
9270;SDS011;4673;53.458;9.940;2023-10-13T00:16:19;3.23;;;3.23;;
9270;SDS011;4673;53.458;9.940;2023-10-13T00:18:47;3.47;;;3.47;;
9270;SDS011;4673;53.458;9.940;2023-10-13T00:21:19;3.03;;;3.03;;
9270;SDS011;4673;53.458;9.940;2023-10-13T00:23:56;3.90;;;3.90;;
9270;SDS011;4673;53.458;9.940;2023-10-13T00:26:26;3.33;;;3.33;;
9270;SDS011;4673;53.458;9.940;2023-10-13T00:28:56;3.80;;;3.80;;
9270;SDS011;4673;53.458;9.940;2023-10-13T00:31:27;3.60;;;3.60;;
9270;SDS011;4673;53.458;9.940;2023-10-13T00:33:58;4.63;;;4.57;;
9270;SDS011;4673;53.458;9.940;2023-10-13T00:36:34;3.60;;;3.60;;
9270;SDS011;4673;53.458;9.940;2023-10-13T00:39:00;4.30;;;4.30;;
9270;SDS011;4673;53.458;9.940;2023-10-13T00:41:29;3.57;;;3.57;;
9270;SDS011;4673;53.458;9.940;2023-10-13T00:44:13;3.80;;;3.80;;
9270;SDS011;4673;53.458;9.940;2023-10-13T00:46:41;4.63;;;4.63;;
9270;SDS011;4673;53.458;9.940;2023-10-13T00:49:10;4.27;;;4.27;;
9270;SDS011;4673;53.458;9.940;2023-10-13T00:51:40;4.40;;;4.35;;
9270;SDS011;4673;53.458;9.940;2023-10-13T00:54:12;4.68;;;4.68;;
9270;SDS011;4673;53.458;9.940;2023-10-13T00:56:41;4.37;;;4.37;;
9270;SDS011;4673;53.458;9.940;2023-10-13T00:59:14;4.90;;;4.80;;
9270;SDS011;4673;53.458;9.940;2023-10-13T01:01:41;4.47;;;4.47;;
9270;SDS011;4673;53.458;9.940;2023-10-13T01:04:08;4.28;;;4.28;;
9270;SDS011;4673;53.458;9.940;2023-10-13T01:06:37;5.73;;;5.63;;
9270;SDS011;4673;53.458;9.940;2023-10-13T01:09:04;5.68;;;5.57;;
9270;SDS011;4673;53.458;9.940;2023-10-13T01:11:44;5.82;;;5.72;;
9270;SDS011;4673;53.458;9.940;2023-10-13T01:14:13;5.25;;;5.25;;
9270;SDS011;4673;53.458;9.940;2023-10-13T01:16:42;4.60;;;4.60;;
9270;SDS011;4673;53.458;9.940;2023-10-13T01:19:14;4.45;;;4.45;;
9270;SDS011;4673;53.458;9.940;2023-10-13T01:21:44;6.00;;;6.00;;
9270;SDS011;4673;53.458;9.940;2023-10-13T01:24:12;6.40;;;6.40;;
9270;SDS011;4673;53.458;9.940;2023-10-13T01:26:39;5.97;;;5.88;;
9270;SDS011;4673;53.458;9.940;2023-10-13T01:29:06;6.55;;;6.45;;
9270;SDS011;4673;53.458;9.940;2023-10-13T01:31:43;5.97;;;5.87;;
9270;SDS011;4673;53.458;9.940;2023-10-13T01:34:14;5.45;;;5.45;;
9270;SDS011;4673;53.458;9.940;2023-10-13T01:39:23;6.05;;;6.05;;
9270;SDS011;4673;53.458;9.940;2023-10-13T01:41:54;6.50;;;6.47;;
9270;SDS011;4673;53.458;9.940;2023-10-13T01:44:23;7.15;;;7.07;;
9270;SDS011;4673;53.458;9.940;2023-10-13T01:46:53;6.68;;;6.57;;
9270;SDS011;4673;53.458;9.940;2023-10-13T01:49:18;7.88;;;7.78;;
9270;SDS011;4673;53.458;9.940;2023-10-13T01:51:46;6.32;;;6.32;;
9270;SDS011;4673;53.458;9.940;2023-10-13T01:54:12;6.25;;;6.18;;
9270;SDS011;4673;53.458;9.940;2023-10-13T01:56:38;7.85;;;7.75;;
9270;SDS011;4673;53.458;9.940;2023-10-13T01:59:10;6.75;;;6.68;;
9270;SDS011;4673;53.458;9.940;2023-10-13T02:01:37;7.40;;;7.40;;
9270;SDS011;4673;53.458;9.940;2023-10-13T02:04:03;6.88;;;6.88;;
9270;SDS011;4673;53.458;9.940;2023-10-13T02:06:29;7.95;;;7.85;;
9270;SDS011;4673;53.458;9.940;2023-10-13T02:09:08;7.93;;;7.82;;
9270;SDS011;4673;53.458;9.940;2023-10-13T02:11:51;7.45;;;7.35;;
9270;SDS011;4673;53.458;9.940;2023-10-13T02:14:21;9.20;;;9.10;;
9270;SDS011;4673;53.458;9.940;2023-10-13T02:16:48;8.20;;;8.10;;
9270;SDS011;4673;53.458;9.940;2023-10-13T02:19:21;8.55;;;8.55;;
9270;SDS011;4673;53.458;9.940;2023-10-13T02:21:52;8.48;;;8.40;;
9270;SDS011;4673;53.458;9.940;2023-10-13T02:24:23;8.38;;;8.27;;
9270;SDS011;4673;53.458;9.940;2023-10-13T02:26:54;8.48;;;8.38;;
9270;SDS011;4673;53.458;9.940;2023-10-13T02:29:28;9.40;;;9.30;;
9270;SDS011;4673;53.458;9.940;2023-10-13T02:31:53;10.02;;;9.93;;
9270;SDS011;4673;53.458;9.940;2023-10-13T02:34:19;9.88;;;9.77;;
9270;SDS011;4673;53.458;9.940;2023-10-13T02:36:47;9.30;;;9.27;;
9270;SDS011;4673;53.458;9.940;2023-10-13T02:39:17;9.73;;;9.63;;
9270;SDS011;4673;53.458;9.940;2023-10-13T02:41:51;10.15;;;10.05;;
9270;SDS011;4673;53.458;9.940;2023-10-13T02:44:17;10.45;;;10.35;;
9270;SDS011;4673;53.458;9.940;2023-10-13T02:46:52;10.43;;;10.32;;
9270;SDS011;4673;53.458;9.940;2023-10-13T02:49:21;10.65;;;10.55;;
9270;SDS011;4673;53.458;9.940;2023-10-13T02:51:47;10.88;;;10.77;;
9270;SDS011;4673;53.458;9.940;2023-10-13T02:54:13;10.52;;;10.43;;
9270;SDS011;4673;53.458;9.940;2023-10-13T02:56:43;10.52;;;10.43;;
9270;SDS011;4673;53.458;9.940;2023-10-13T02:59:14;10.38;;;10.38;;
9270;SDS011;4673;53.458;9.940;2023-10-13T03:01:40;10.68;;;10.57;;
9270;SDS011;4673;53.458;9.940;2023-10-13T03:04:07;11.25;;;11.15;;
9270;SDS011;4673;53.458;9.940;2023-10-13T03:06:37;11.60;;;11.50;;
9270;SDS011;4673;53.458;9.940;2023-10-13T03:09:07;11.20;;;11.10;;
9270;SDS011;4673;53.458;9.940;2023-10-13T03:11:46;10.55;;;10.55;;
9270;SDS011;4673;53.458;9.940;2023-10-13T03:14:21;10.38;;;10.38;;
9270;SDS011;4673;53.458;9.940;2023-10-13T03:16:53;9.02;;;9.02;;
9270;SDS011;4673;53.458;9.940;2023-10-13T03:19:20;9.50;;;9.50;;
9270;SDS011;4673;53.458;9.940;2023-10-13T03:21:46;8.45;;;8.45;;
9270;SDS011;4673;53.458;9.940;2023-10-13T03:24:29;7.18;;;7.18;;
9270;SDS011;4673;53.458;9.940;2023-10-13T03:27:01;7.65;;;7.65;;
9270;SDS011;4673;53.458;9.940;2023-10-13T03:29:38;7.13;;;7.13;;
9270;SDS011;4673;53.458;9.940;2023-10-13T03:32:19;6.93;;;6.93;;
9270;SDS011;4673;53.458;9.940;2023-10-13T03:34:45;7.00;;;7.00;;
9270;SDS011;4673;53.458;9.940;2023-10-13T03:37:18;7.07;;;7.07;;
9270;SDS011;4673;53.458;9.940;2023-10-13T03:40:02;6.10;;;6.10;;
9270;SDS011;4673;53.458;9.940;2023-10-13T03:42:32;6.47;;;6.47;;
9270;SDS011;4673;53.458;9.940;2023-10-13T03:44:58;6.30;;;6.30;;
9270;SDS011;4673;53.458;9.940;2023-10-13T03:47:23;6.20;;;6.20;;
9270;SDS011;4673;53.458;9.940;2023-10-13T03:49:55;6.28;;;6.28;;
9270;SDS011;4673;53.458;9.940;2023-10-13T03:52:39;6.20;;;6.20;;
9270;SDS011;4673;53.458;9.940;2023-10-13T03:55:05;6.43;;;6.43;;
9270;SDS011;4673;53.458;9.940;2023-10-13T03:57:32;6.65;;;6.65;;
9270;SDS011;4673;53.458;9.940;2023-10-13T04:00:04;6.18;;;6.18;;
9270;SDS011;4673;53.458;9.940;2023-10-13T04:02:34;7.57;;;7.57;;
9270;SDS011;4673;53.458;9.940;2023-10-13T04:05:01;7.07;;;7.07;;
9270;SDS011;4673;53.458;9.940;2023-10-13T04:07:34;8.48;;;8.48;;
9270;SDS011;4673;53.458;9.940;2023-10-13T04:10:26;9.63;;;9.63;;
9270;SDS011;4673;53.458;9.940;2023-10-13T04:13:09;10.23;;;10.23;;
9270;SDS011;4673;53.458;9.940;2023-10-13T04:15:38;11.65;;;11.55;;
9270;SDS011;4673;53.458;9.940;2023-10-13T04:18:23;11.70;;;11.70;;
9270;SDS011;4673;53.458;9.940;2023-10-13T04:21:21;13.02;;;12.93;;
9270;SDS011;4673;53.458;9.940;2023-10-13T04:24:06;12.68;;;12.57;;
9270;SDS011;4673;53.458;9.940;2023-10-13T04:26:50;14.70;;;14.60;;
9270;SDS011;4673;53.458;9.940;2023-10-13T04:29:35;14.80;;;14.70;;
9270;SDS011;4673;53.458;9.940;2023-10-13T04:32:30;21.05;;;20.85;;
9270;SDS011;4673;53.458;9.940;2023-10-13T04:35:04;17.58;;;17.48;;
9270;SDS011;4673;53.458;9.940;2023-10-13T04:37:39;21.58;;;21.40;;
9270;SDS011;4673;53.458;9.940;2023-10-13T04:40:40;22.83;;;22.63;;
9270;SDS011;4673;53.458;9.940;2023-10-13T04:43:23;21.90;;;21.70;;
9270;SDS011;4673;53.458;9.940;2023-10-13T04:46:02;23.98;;;23.77;;
9270;SDS011;4673;53.458;9.940;2023-10-13T04:48:47;23.13;;;22.92;;
9270;SDS011;4673;53.458;9.940;2023-10-13T04:51:13;23.08;;;22.88;;
9270;SDS011;4673;53.458;9.940;2023-10-13T04:54:04;23.45;;;23.25;;
9270;SDS011;4673;53.458;9.940;2023-10-13T04:56:37;25.63;;;25.42;;
9270;SDS011;4673;53.458;9.940;2023-10-13T04:59:06;25.40;;;25.20;;
9270;SDS011;4673;53.458;9.940;2023-10-13T05:02:00;24.83;;;24.63;;
9270;SDS011;4673;53.458;9.940;2023-10-13T05:04:59;24.38;;;24.17;;
9270;SDS011;4673;53.458;9.940;2023-10-13T05:07:47;23.77;;;23.58;;
9270;SDS011;4673;53.458;9.940;2023-10-13T05:10:32;22.92;;;22.73;;
9270;SDS011;4673;53.458;9.940;2023-10-13T05:13:18;24.23;;;24.02;;
9270;SDS011;4673;53.458;9.940;2023-10-13T05:16:02;22.73;;;22.52;;
9270;SDS011;4673;53.458;9.940;2023-10-13T05:18:46;23.38;;;23.17;;
9270;SDS011;4673;53.458;9.940;2023-10-13T05:21:30;25.38;;;25.17;;
9270;SDS011;4673;53.458;9.940;2023-10-13T05:24:14;24.58;;;24.38;;
9270;SDS011;4673;53.458;9.940;2023-10-13T05:26:58;24.55;;;24.35;;
9270;SDS011;4673;53.458;9.940;2023-10-13T05:29:44;24.90;;;24.70;;
9270;SDS011;4673;53.458;9.940;2023-10-13T05:32:29;24.02;;;23.83;;
9270;SDS011;4673;53.458;9.940;2023-10-13T05:35:14;23.30;;;23.10;;
9270;SDS011;4673;53.458;9.940;2023-10-13T05:37:59;24.08;;;23.88;;
9270;SDS011;4673;53.458;9.940;2023-10-13T05:40:54;23.92;;;23.73;;
9270;SDS011;4673;53.458;9.940;2023-10-13T05:43:41;23.48;;;23.27;;
9270;SDS011;4673;53.458;9.940;2023-10-13T05:46:25;24.00;;;23.80;;
9270;SDS011;4673;53.458;9.940;2023-10-13T05:48:51;27.13;;;26.92;;
9270;SDS011;4673;53.458;9.940;2023-10-13T05:51:24;25.55;;;25.35;;
9270;SDS011;4673;53.458;9.940;2023-10-13T05:54:11;26.00;;;25.80;;
9270;SDS011;4673;53.458;9.940;2023-10-13T05:56:39;24.60;;;24.40;;
9270;SDS011;4673;53.458;9.940;2023-10-13T05:59:26;25.23;;;25.02;;
9270;SDS011;4673;53.458;9.940;2023-10-13T06:02:12;23.90;;;23.70;;
9270;SDS011;4673;53.458;9.940;2023-10-13T06:04:58;26.10;;;25.90;;
9270;SDS011;4673;53.458;9.940;2023-10-13T06:07:45;25.73;;;25.52;;
9270;SDS011;4673;53.458;9.940;2023-10-13T06:10:29;24.58;;;24.38;;
9270;SDS011;4673;53.458;9.940;2023-10-13T06:13:13;25.30;;;25.10;;
9270;SDS011;4673;53.458;9.940;2023-10-13T06:15:57;26.25;;;26.05;;
9270;SDS011;4673;53.458;9.940;2023-10-13T06:18:41;26.33;;;26.13;;
9270;SDS011;4673;53.458;9.940;2023-10-13T06:21:25;27.90;;;27.70;;
9270;SDS011;4673;53.458;9.940;2023-10-13T06:24:09;28.02;;;27.83;;
9270;SDS011;4673;53.458;9.940;2023-10-13T06:26:53;27.33;;;27.13;;
9270;SDS011;4673;53.458;9.940;2023-10-13T06:29:37;29.52;;;29.33;;
9270;SDS011;4673;53.458;9.940;2023-10-13T06:32:03;28.05;;;27.85;;
9270;SDS011;4673;53.458;9.940;2023-10-13T06:34:35;30.52;;;30.33;;
9270;SDS011;4673;53.458;9.940;2023-10-13T06:37:11;28.45;;;28.25;;
9270;SDS011;4673;53.458;9.940;2023-10-13T06:39:59;28.67;;;28.48;;
9270;SDS011;4673;53.458;9.940;2023-10-13T06:42:32;30.73;;;30.52;;
9270;SDS011;4673;53.458;9.940;2023-10-13T06:45:07;28.95;;;28.75;;
9270;SDS011;4673;53.458;9.940;2023-10-13T06:47:37;29.58;;;29.38;;
9270;SDS011;4673;53.458;9.940;2023-10-13T06:50:13;29.08;;;28.88;;
9270;SDS011;4673;53.458;9.940;2023-10-13T06:52:41;28.98;;;28.77;;
9270;SDS011;4673;53.458;9.940;2023-10-13T06:55:08;28.77;;;28.58;;
9270;SDS011;4673;53.458;9.940;2023-10-13T06:57:45;29.35;;;29.15;;
9270;SDS011;4673;53.458;9.940;2023-10-13T07:00:12;29.73;;;29.52;;
9270;SDS011;4673;53.458;9.940;2023-10-13T07:02:59;29.05;;;28.85;;
9270;SDS011;4673;53.458;9.940;2023-10-13T07:05:37;29.40;;;29.20;;
9270;SDS011;4673;53.458;9.940;2023-10-13T07:08:09;28.88;;;28.67;;
9270;SDS011;4673;53.458;9.940;2023-10-13T07:10:46;27.65;;;27.45;;
9270;SDS011;4673;53.458;9.940;2023-10-13T07:13:33;28.33;;;28.13;;
9270;SDS011;4673;53.458;9.940;2023-10-13T07:16:04;26.70;;;26.50;;
9270;SDS011;4673;53.458;9.940;2023-10-13T07:18:33;26.20;;;26.00;;
9270;SDS011;4673;53.458;9.940;2023-10-13T07:21:08;25.88;;;25.67;;
9270;SDS011;4673;53.458;9.940;2023-10-13T07:23:37;26.63;;;26.52;;
9270;SDS011;4673;53.458;9.940;2023-10-13T07:26:04;22.85;;;22.75;;
9270;SDS011;4673;53.458;9.940;2023-10-13T07:28:31;23.40;;;23.20;;
9270;SDS011;4673;53.458;9.940;2023-10-13T07:31:01;20.42;;;20.33;;
9270;SDS011;4673;53.458;9.940;2023-10-13T07:33:27;21.23;;;21.13;;
9270;SDS011;4673;53.458;9.940;2023-10-13T07:36:05;20.25;;;20.15;;
9270;SDS011;4673;53.458;9.940;2023-10-13T07:38:45;19.00;;;18.90;;
9270;SDS011;4673;53.458;9.940;2023-10-13T07:41:24;19.60;;;19.50;;
9270;SDS011;4673;53.458;9.940;2023-10-13T07:43:55;18.13;;;18.02;;
9270;SDS011;4673;53.458;9.940;2023-10-13T07:46:22;18.00;;;17.90;;
9270;SDS011;4673;53.458;9.940;2023-10-13T07:48:56;18.13;;;18.02;;
9270;SDS011;4673;53.458;9.940;2023-10-13T07:51:34;17.08;;;16.98;;
9270;SDS011;4673;53.458;9.940;2023-10-13T07:54:10;17.05;;;16.95;;
9270;SDS011;4673;53.458;9.940;2023-10-13T07:56:40;15.70;;;15.60;;
9270;SDS011;4673;53.458;9.940;2023-10-13T07:59:05;15.77;;;15.68;;
9270;SDS011;4673;53.458;9.940;2023-10-13T08:01:34;14.95;;;14.85;;
9270;SDS011;4673;53.458;9.940;2023-10-13T08:03:59;15.55;;;15.45;;
9270;SDS011;4673;53.458;9.940;2023-10-13T08:06:37;14.95;;;14.85;;
9270;SDS011;4673;53.458;9.940;2023-10-13T08:09:06;15.23;;;15.20;;
9270;SDS011;4673;53.458;9.940;2023-10-13T08:11:33;15.40;;;15.30;;
9270;SDS011;4673;53.458;9.940;2023-10-13T08:14:05;14.02;;;13.93;;
9270;SDS011;4673;53.458;9.940;2023-10-13T08:16:40;13.75;;;13.75;;
9270;SDS011;4673;53.458;9.940;2023-10-13T08:19:26;15.23;;;15.23;;
9270;SDS011;4673;53.458;9.940;2023-10-13T08:21:54;14.07;;;14.07;;
9270;SDS011;4673;53.458;9.940;2023-10-13T08:24:24;13.48;;;13.48;;
9270;SDS011;4673;53.458;9.940;2023-10-13T08:27:03;13.57;;;13.57;;
9270;SDS011;4673;53.458;9.940;2023-10-13T08:29:41;13.05;;;13.05;;
9270;SDS011;4673;53.458;9.940;2023-10-13T08:32:19;13.18;;;13.18;;
9270;SDS011;4673;53.458;9.940;2023-10-13T08:35:01;11.25;;;11.25;;
9270;SDS011;4673;53.458;9.940;2023-10-13T08:37:30;10.18;;;10.18;;
9270;SDS011;4673;53.458;9.940;2023-10-13T08:40:22;9.23;;;9.23;;
9270;SDS011;4673;53.458;9.940;2023-10-13T08:43:06;10.93;;;10.93;;
9270;SDS011;4673;53.458;9.940;2023-10-13T08:45:40;9.80;;;9.80;;
9270;SDS011;4673;53.458;9.940;2023-10-13T08:48:12;10.65;;;10.65;;
9270;SDS011;4673;53.458;9.940;2023-10-13T08:50:43;9.82;;;9.82;;
9270;SDS011;4673;53.458;9.940;2023-10-13T08:53:16;10.73;;;10.73;;
9270;SDS011;4673;53.458;9.940;2023-10-13T08:55:58;7.57;;;7.57;;
9270;SDS011;4673;53.458;9.940;2023-10-13T08:58:43;7.10;;;7.10;;
9270;SDS011;4673;53.458;9.940;2023-10-13T09:01:25;6.43;;;6.43;;
9270;SDS011;4673;53.458;9.940;2023-10-13T09:04:14;6.88;;;6.88;;
9270;SDS011;4673;53.458;9.940;2023-10-13T09:09:26;8.05;;;8.05;;
9270;SDS011;4673;53.458;9.940;2023-10-13T09:11:54;7.15;;;7.15;;
9270;SDS011;4673;53.458;9.940;2023-10-13T09:14:53;6.93;;;6.93;;
9270;SDS011;4673;53.458;9.940;2023-10-13T09:17:23;8.18;;;8.18;;
9270;SDS011;4673;53.458;9.940;2023-10-13T09:19:59;7.15;;;7.15;;
9270;SDS011;4673;53.458;9.940;2023-10-13T09:22:44;7.10;;;7.10;;
9270;SDS011;4673;53.458;9.940;2023-10-13T09:25:21;7.82;;;7.82;;
9270;SDS011;4673;53.458;9.940;2023-10-13T09:27:48;6.47;;;6.47;;
9270;SDS011;4673;53.458;9.940;2023-10-13T09:30:18;6.70;;;6.70;;
9270;SDS011;4673;53.458;9.940;2023-10-13T09:32:45;7.38;;;7.38;;
9270;SDS011;4673;53.458;9.940;2023-10-13T09:35:15;7.45;;;7.38;;
9270;SDS011;4673;53.458;9.940;2023-10-13T09:37:48;6.68;;;6.68;;
9270;SDS011;4673;53.458;9.940;2023-10-13T09:40:18;6.28;;;6.28;;
9270;SDS011;4673;53.458;9.940;2023-10-13T09:43:02;5.43;;;5.43;;
9270;SDS011;4673;53.458;9.940;2023-10-13T09:45:33;5.63;;;5.63;;
9270;SDS011;4673;53.458;9.940;2023-10-13T09:48:08;5.75;;;5.75;;
9270;SDS011;4673;53.458;9.940;2023-10-13T09:50:42;6.55;;;6.55;;
9270;SDS011;4673;53.458;9.940;2023-10-13T09:53:10;6.78;;;6.78;;
9270;SDS011;4673;53.458;9.940;2023-10-13T09:55:43;5.65;;;5.65;;
9270;SDS011;4673;53.458;9.940;2023-10-13T09:58:12;5.55;;;5.55;;
9270;SDS011;4673;53.458;9.940;2023-10-13T10:03:23;4.82;;;4.82;;
9270;SDS011;4673;53.458;9.940;2023-10-13T10:06:04;5.38;;;5.38;;
9270;SDS011;4673;53.458;9.940;2023-10-13T10:09:03;5.10;;;5.10;;
9270;SDS011;4673;53.458;9.940;2023-10-13T10:19:48;5.38;;;5.38;;
9270;SDS011;4673;53.458;9.940;2023-10-13T10:22:24;6.10;;;6.10;;
9270;SDS011;4673;53.458;9.940;2023-10-13T10:25:01;5.65;;;5.65;;
9270;SDS011;4673;53.458;9.940;2023-10-13T10:27:57;5.18;;;5.18;;
9270;SDS011;4673;53.458;9.940;2023-10-13T10:30:24;5.22;;;5.22;;
9270;SDS011;4673;53.458;9.940;2023-10-13T10:32:54;5.07;;;5.07;;
9270;SDS011;4673;53.458;9.940;2023-10-13T10:35:26;5.30;;;5.30;;
9270;SDS011;4673;53.458;9.940;2023-10-13T10:38:06;5.03;;;5.03;;
9270;SDS011;4673;53.458;9.940;2023-10-13T10:40:47;4.78;;;4.78;;
9270;SDS011;4673;53.458;9.940;2023-10-13T10:43:43;5.28;;;5.28;;
9270;SDS011;4673;53.458;9.940;2023-10-13T10:46:12;5.53;;;5.53;;
9270;SDS011;4673;53.458;9.940;2023-10-13T10:48:38;5.07;;;5.07;;
9270;SDS011;4673;53.458;9.940;2023-10-13T10:51:08;5.03;;;5.03;;
9270;SDS011;4673;53.458;9.940;2023-10-13T10:53:47;5.35;;;5.35;;
9270;SDS011;4673;53.458;9.940;2023-10-13T10:56:18;5.47;;;5.47;;
9270;SDS011;4673;53.458;9.940;2023-10-13T10:58:59;5.30;;;5.30;;
9270;SDS011;4673;53.458;9.940;2023-10-13T11:01:26;4.85;;;4.85;;
9270;SDS011;4673;53.458;9.940;2023-10-13T11:04:04;4.43;;;4.43;;
9270;SDS011;4673;53.458;9.940;2023-10-13T11:06:34;5.50;;;5.50;;
9270;SDS011;4673;53.458;9.940;2023-10-13T11:09:07;4.65;;;4.65;;
9270;SDS011;4673;53.458;9.940;2023-10-13T11:11:51;5.57;;;5.57;;
9270;SDS011;4673;53.458;9.940;2023-10-13T11:14:25;5.28;;;5.28;;
9270;SDS011;4673;53.458;9.940;2023-10-13T11:16:55;4.82;;;4.82;;
9270;SDS011;4673;53.458;9.940;2023-10-13T11:19:34;5.25;;;5.25;;
9270;SDS011;4673;53.458;9.940;2023-10-13T11:22:10;4.07;;;4.07;;
9270;SDS011;4673;53.458;9.940;2023-10-13T11:25:04;4.65;;;4.65;;
9270;SDS011;4673;53.458;9.940;2023-10-13T11:27:39;4.28;;;4.28;;
9270;SDS011;4673;53.458;9.940;2023-10-13T11:30:14;4.95;;;4.95;;
9270;SDS011;4673;53.458;9.940;2023-10-13T11:32:45;4.50;;;4.50;;
9270;SDS011;4673;53.458;9.940;2023-10-13T11:35:21;4.38;;;4.38;;
9270;SDS011;4673;53.458;9.940;2023-10-13T11:37:50;4.45;;;4.45;;
9270;SDS011;4673;53.458;9.940;2023-10-13T11:40:28;3.90;;;3.90;;
9270;SDS011;4673;53.458;9.940;2023-10-13T11:43:13;4.30;;;4.30;;
9270;SDS011;4673;53.458;9.940;2023-10-13T11:45:40;4.65;;;4.65;;
9270;SDS011;4673;53.458;9.940;2023-10-13T11:48:25;4.78;;;4.78;;
9270;SDS011;4673;53.458;9.940;2023-10-13T11:51:02;4.15;;;4.15;;
9270;SDS011;4673;53.458;9.940;2023-10-13T11:53:32;4.63;;;4.63;;
9270;SDS011;4673;53.458;9.940;2023-10-13T11:56:02;4.70;;;4.70;;
9270;SDS011;4673;53.458;9.940;2023-10-13T11:58:35;4.55;;;4.55;;
9270;SDS011;4673;53.458;9.940;2023-10-13T12:01:04;4.47;;;4.47;;
9270;SDS011;4673;53.458;9.940;2023-10-13T12:03:36;4.78;;;4.78;;
9270;SDS011;4673;53.458;9.940;2023-10-13T12:06:20;4.43;;;4.43;;
9270;SDS011;4673;53.458;9.940;2023-10-13T12:09:18;5.43;;;5.43;;
9270;SDS011;4673;53.458;9.940;2023-10-13T12:11:47;4.00;;;4.00;;
9270;SDS011;4673;53.458;9.940;2023-10-13T12:14:16;4.72;;;4.72;;
9270;SDS011;4673;53.458;9.940;2023-10-13T12:16:45;3.80;;;3.80;;
9270;SDS011;4673;53.458;9.940;2023-10-13T12:19:16;4.00;;;4.00;;
9270;SDS011;4673;53.458;9.940;2023-10-13T12:21:43;4.35;;;4.35;;
9270;SDS011;4673;53.458;9.940;2023-10-13T12:24:09;4.43;;;4.43;;
9270;SDS011;4673;53.458;9.940;2023-10-13T12:26:48;4.00;;;4.00;;
9270;SDS011;4673;53.458;9.940;2023-10-13T12:29:20;4.50;;;4.50;;
9270;SDS011;4673;53.458;9.940;2023-10-13T12:31:54;5.40;;;5.40;;
9270;SDS011;4673;53.458;9.940;2023-10-13T12:34:37;4.45;;;4.45;;
9270;SDS011;4673;53.458;9.940;2023-10-13T12:37:21;4.65;;;4.65;;
9270;SDS011;4673;53.458;9.940;2023-10-13T12:40:06;4.20;;;4.20;;
9270;SDS011;4673;53.458;9.940;2023-10-13T12:42:56;4.53;;;4.53;;
9270;SDS011;4673;53.458;9.940;2023-10-13T12:48:25;4.72;;;4.72;;
9270;SDS011;4673;53.458;9.940;2023-10-13T12:51:09;4.55;;;4.55;;
9270;SDS011;4673;53.458;9.940;2023-10-13T12:53:53;4.47;;;4.47;;
9270;SDS011;4673;53.458;9.940;2023-10-13T12:56:20;4.70;;;4.70;;
9270;SDS011;4673;53.458;9.940;2023-10-13T12:58:53;4.53;;;4.53;;
9270;SDS011;4673;53.458;9.940;2023-10-13T13:01:22;4.53;;;4.53;;
9270;SDS011;4673;53.458;9.940;2023-10-13T13:03:58;5.00;;;5.00;;
9270;SDS011;4673;53.458;9.940;2023-10-13T13:06:24;3.78;;;3.78;;
9270;SDS011;4673;53.458;9.940;2023-10-13T13:08:51;5.20;;;5.20;;
9270;SDS011;4673;53.458;9.940;2023-10-13T13:11:18;4.57;;;4.57;;
9270;SDS011;4673;53.458;9.940;2023-10-13T13:13:43;4.18;;;4.18;;
9270;SDS011;4673;53.458;9.940;2023-10-13T13:16:11;4.88;;;4.88;;
9270;SDS011;4673;53.458;9.940;2023-10-13T13:18:44;4.65;;;4.65;;
9270;SDS011;4673;53.458;9.940;2023-10-13T13:21:09;4.75;;;4.75;;
9270;SDS011;4673;53.458;9.940;2023-10-13T13:23:45;5.07;;;5.07;;
9270;SDS011;4673;53.458;9.940;2023-10-13T13:26:11;4.55;;;4.55;;
9270;SDS011;4673;53.458;9.940;2023-10-13T13:28:46;5.30;;;5.30;;
9270;SDS011;4673;53.458;9.940;2023-10-13T13:31:16;4.30;;;4.30;;
9270;SDS011;4673;53.458;9.940;2023-10-13T13:33:42;4.95;;;4.95;;
9270;SDS011;4673;53.458;9.940;2023-10-13T13:36:09;4.95;;;4.90;;
9270;SDS011;4673;53.458;9.940;2023-10-13T13:38:41;4.85;;;4.85;;
9270;SDS011;4673;53.458;9.940;2023-10-13T13:41:11;5.00;;;5.00;;
9270;SDS011;4673;53.458;9.940;2023-10-13T13:43:40;4.72;;;4.72;;
9270;SDS011;4673;53.458;9.940;2023-10-13T13:46:22;4.97;;;4.97;;
9270;SDS011;4673;53.458;9.940;2023-10-13T13:48:58;5.32;;;5.32;;
9270;SDS011;4673;53.458;9.940;2023-10-13T13:51:26;4.38;;;4.38;;
9270;SDS011;4673;53.458;9.940;2023-10-13T13:53:53;5.43;;;5.43;;
9270;SDS011;4673;53.458;9.940;2023-10-13T13:56:23;4.72;;;4.72;;
9270;SDS011;4673;53.458;9.940;2023-10-13T13:58:54;5.00;;;5.00;;
9270;SDS011;4673;53.458;9.940;2023-10-13T14:01:20;5.28;;;5.28;;
9270;SDS011;4673;53.458;9.940;2023-10-13T14:03:50;5.45;;;5.35;;
9270;SDS011;4673;53.458;9.940;2023-10-13T14:06:17;5.43;;;5.43;;
9270;SDS011;4673;53.458;9.940;2023-10-13T14:08:52;5.00;;;5.00;;
9270;SDS011;4673;53.458;9.940;2023-10-13T14:11:20;5.90;;;5.80;;
9270;SDS011;4673;53.458;9.940;2023-10-13T14:16:50;5.93;;;5.93;;
9270;SDS011;4673;53.458;9.940;2023-10-13T14:19:16;5.50;;;5.50;;
9270;SDS011;4673;53.458;9.940;2023-10-13T14:21:51;6.05;;;6.05;;
9270;SDS011;4673;53.458;9.940;2023-10-13T14:24:18;5.10;;;5.10;;
9270;SDS011;4673;53.458;9.940;2023-10-13T14:26:52;5.45;;;5.45;;
9270;SDS011;4673;53.458;9.940;2023-10-13T14:29:18;6.15;;;6.05;;
9270;SDS011;4673;53.458;9.940;2023-10-13T14:31:44;4.70;;;4.70;;
9270;SDS011;4673;53.458;9.940;2023-10-13T14:34:13;4.95;;;4.95;;
9270;SDS011;4673;53.458;9.940;2023-10-13T14:36:39;5.20;;;5.20;;
9270;SDS011;4673;53.458;9.940;2023-10-13T14:39:05;5.60;;;5.50;;
9270;SDS011;4673;53.458;9.940;2023-10-13T14:41:34;5.47;;;5.45;;
9270;SDS011;4673;53.458;9.940;2023-10-13T14:44:00;5.80;;;5.80;;
9270;SDS011;4673;53.458;9.940;2023-10-13T14:46:30;6.28;;;6.18;;
9270;SDS011;4673;53.458;9.940;2023-10-13T14:48:56;6.20;;;6.20;;
9270;SDS011;4673;53.458;9.940;2023-10-13T14:51:22;6.13;;;6.03;;
9270;SDS011;4673;53.458;9.940;2023-10-13T14:53:50;6.03;;;6.03;;
9270;SDS011;4673;53.458;9.940;2023-10-13T14:56:21;4.80;;;4.80;;
9270;SDS011;4673;53.458;9.940;2023-10-13T14:58:50;6.47;;;6.38;;
9270;SDS011;4673;53.458;9.940;2023-10-13T15:01:17;5.38;;;5.38;;
9270;SDS011;4673;53.458;9.940;2023-10-13T15:03:44;5.50;;;5.50;;
9270;SDS011;4673;53.458;9.940;2023-10-13T15:06:17;6.05;;;6.05;;
9270;SDS011;4673;53.458;9.940;2023-10-13T15:08:44;5.70;;;5.70;;
9270;SDS011;4673;53.458;9.940;2023-10-13T15:11:11;5.53;;;5.53;;
9270;SDS011;4673;53.458;9.940;2023-10-13T15:13:38;4.75;;;4.75;;
9270;SDS011;4673;53.458;9.940;2023-10-13T15:16:16;5.90;;;5.90;;
9270;SDS011;4673;53.458;9.940;2023-10-13T15:18:47;6.63;;;6.53;;
9270;SDS011;4673;53.458;9.940;2023-10-13T15:21:26;6.43;;;6.43;;
9270;SDS011;4673;53.458;9.940;2023-10-13T15:24:02;5.90;;;5.90;;
9270;SDS011;4673;53.458;9.940;2023-10-13T15:26:29;5.68;;;5.68;;
9270;SDS011;4673;53.458;9.940;2023-10-13T15:28:57;5.32;;;5.32;;
9270;SDS011;4673;53.458;9.940;2023-10-13T15:31:25;4.88;;;4.88;;
9270;SDS011;4673;53.458;9.940;2023-10-13T15:33:54;5.22;;;5.22;;
9270;SDS011;4673;53.458;9.940;2023-10-13T15:36:21;5.50;;;5.50;;
9270;SDS011;4673;53.458;9.940;2023-10-13T15:38:48;6.15;;;6.15;;
9270;SDS011;4673;53.458;9.940;2023-10-13T15:41:23;5.40;;;5.40;;
9270;SDS011;4673;53.458;9.940;2023-10-13T15:43:49;5.80;;;5.80;;
9270;SDS011;4673;53.458;9.940;2023-10-13T15:46:16;6.20;;;6.20;;
9270;SDS011;4673;53.458;9.940;2023-10-13T15:48:43;6.18;;;6.07;;
9270;SDS011;4673;53.458;9.940;2023-10-13T15:51:11;6.05;;;6.03;;
9270;SDS011;4673;53.458;9.940;2023-10-13T15:53:39;5.88;;;5.88;;
9270;SDS011;4673;53.458;9.940;2023-10-13T15:56:06;6.60;;;6.50;;
9270;SDS011;4673;53.458;9.940;2023-10-13T15:58:37;6.45;;;6.45;;
9270;SDS011;4673;53.458;9.940;2023-10-13T16:01:08;6.50;;;6.47;;
9270;SDS011;4673;53.458;9.940;2023-10-13T16:03:38;5.82;;;5.82;;
9270;SDS011;4673;53.458;9.940;2023-10-13T16:06:14;6.00;;;6.00;;
9270;SDS011;4673;53.458;9.940;2023-10-13T16:08:41;6.30;;;6.20;;
9270;SDS011;4673;53.458;9.940;2023-10-13T16:11:10;6.25;;;6.25;;